EGEC/CAL METAR and TAF weather

Enter ICAO airport designator
Station Type Date Time Source
EGEC METAR 2020/08/13 23:20 UTC NOAA

EGEC 132320Z 10003KT CAVOK 17/14 Q1017


Station Type Date Time Source
EGEC Decoded METAR 2020/08/13 23:20 UTC NOAA

Campbeltown, United Kingdom (EGEC) 55-26-14N 005-41-11W
Aug 13, 2020 - 07:20 PM EDT / 2020.08.13 2320 UTC
Wind: from the E (100 degrees) at 3 MPH (3 KT):0
Visibility: greater than 7 mile(s):0
Temperature: 62 F (17 C)
Dew Point: 57 F (14 C)
Relative Humidity: 82%
Pressure (altimeter): 30.03 in. Hg (1017 hPa)
ob: EGEC 132320Z 10003KT CAVOK 17/14 Q1017
cycle: 23

Station Type Date Time Source
EGEC TAF UTC NOAA

Error!

Example: see airport list